Oakley, Ohio
Current Conditions -  °F | °C
As of 2:53 PM on Saturday 25 Oct 2014 (Local Time) from KLUK Reporting Station
Clear Clear  
Wind Chill: 71°   Ceiling: Unl
Heat Index: 71°   Visibility: 10mi
Dew Point: 58°   Wind: 14mph
Humidity: 63%   Direction: 230°SW
Pressure: 29.92"   Gusts: NA
Location:  39.1528°N, 84.4263°W
Report Text: KLUK 251853Z 23012KT 10SM CLR 22/14 A2992 RMK AO2 SLP132 T02170144
Loading
Personal Weather Stations






























Interactive Weather Map
Tropical Storm Tracking
New forecast layout! Learn more

10-Day Weather Forecast

Advertisements
Track Severe Weather on mobile